KGSB/GSB METAR and TAF weather

Enter ICAO airport designator
Station Type Date Time Source
KGSB METAR 2021/04/13 07:56 UTC NOAA

KGSB 130756Z 00000KT 10SM BKN008 14/12 A2991 RMK AO2A RAB52 SLP131 P0000 T01360115 $


Station Type Date Time Source
KGSB Decoded METAR 2021/04/13 07:56 UTC NOAA

Seymour-Johnson Air Force Base, NC, United States (KGSB) 35-20N 077-58W
Apr 13, 2021 - 03:56 AM EDT / 2021.04.13 0756 UTC
Wind: Calm:0
Visibility: 10 mile(s):0
Sky conditions: mostly cloudy
Precipitation last hour: A trace
Temperature: 56.5 F (13.6 C)
Dew Point: 52.7 F (11.5 C)
Relative Humidity: 87%
Pressure (altimeter): 29.91 in. Hg (1012 hPa)
ob: KGSB 130756Z 00000KT 10SM BKN008 14/12 A2991 RMK AO2A RAB52 SLP131 P0000 T01360115
cycle: 8

Station Type Date Time Source
KGSB TAF 2021/04/13 08:20 UTC NOAA

TAF
AMD KGSB 130810Z 1308/1410 35009KT 9999 SCT010 QNH2982INS
BECMG 1312/1313 35012G22KT 9999 SKC QNH2999INS
BECMG 1321/1322 01005KT 9999 SCT040 QNH3000INS TX22/1320Z TN13/1310Z LAST NO
AMDS AFT 1308 NEXT 1312

Example: see airport list